Senator Beck Stream Gauge Full Hourly Data
| TIMESTAMP | Ct Avg | Temp (°C) Avg | C25mS/cm 1 Avg | Depth (ft) Avg | Discharge (cfs) |
|---|---|---|---|---|---|
| 2026-08-31 05:00:00 | 0.08 | 8.29 | 0.12 | 0.397 | 1.354 |
| 2026-08-31 06:00:00 | 0.08 | 8.23 | 0.12 | 0.397 | 1.357 |
| 2026-08-31 07:00:00 | 0.08 | 8.29 | 0.119 | 0.398 | 1.361 |
| 2026-08-31 08:00:00 | 0.08 | 8.49 | 0.119 | 0.399 | 1.369 |
| 2026-08-31 09:00:00 | 0.08 | 8.84 | 0.119 | 0.4 | 1.377 |
| 2026-08-31 10:00:00 | 0.082 | 9.54 | 0.119 | 0.401 | 1.389 |
| 2026-08-31 11:00:00 | 0.082 | 9.82 | 0.118 | 0.403 | 1.403 |
| 2026-08-31 12:00:00 | 0.082 | 9.72 | 0.118 | 0.404 | 1.415 |
| 2026-08-31 13:00:00 | 0.081 | 9.55 | 0.118 | 0.408 | 1.442 |
| 2026-08-31 14:00:00 | 0.08 | 9.52 | 0.116 | 0.415 | 1.501 |
| 2026-08-31 15:00:00 | 0.083 | 9.57 | 0.12 | 0.421 | 1.552 |
| 2026-08-31 16:00:00 | 0.09 | 9.5 | 0.131 | 0.424 | 1.579 |
| 2026-08-31 17:00:00 | 0.097 | 9.3 | 0.142 | 0.431 | 1.648 |
| 2026-08-31 18:00:00 | 0.101 | 9.23 | 0.147 | 0.429 | 1.63 |
| 2026-08-31 19:00:00 | 0.094 | 8.94 | 0.139 | 0.426 | 1.597 |
| 2026-08-31 20:00:00 | 0.088 | 8.57 | 0.132 | 0.425 | 1.586 |
| 2026-08-31 21:00:00 | 0.085 | 8.27 | 0.128 | 0.425 | 1.587 |
| 2026-08-31 22:00:00 | 0.083 | 8.16 | 0.125 | 0.425 | 1.594 |
| 2026-08-31 23:00:00 | 0.082 | 8.13 | 0.124 | 0.427 | 1.605 |
| 2026-09-01 01:00:00 | 0.081 | 8.07 | 0.122 | 0.43 | 1.635 |
| 2026-09-01 02:00:00 | 0.081 | 8.08 | 0.122 | 0.432 | 1.654 |
| 2026-09-01 03:00:00 | 0.08 | 8.08 | 0.121 | 0.434 | 1.674 |
| 2026-09-01 04:00:00 | 0.08 | 8.09 | 0.121 | 0.436 | 1.694 |
| 2026-09-01 05:00:00 | 0.08 | 7.968 | 0.121 | 0.439 | 1.715 |
| 2026-09-01 06:00:00 | 0.079 | 7.788 | 0.121 | 0.441 | 1.738 |
| 2026-09-01 07:00:00 | 0.079 | 7.703 | 0.121 | 0.443 | 1.757 |
| 2026-09-01 08:00:00 | 0.079 | 7.882 | 0.121 | 0.445 | 1.778 |
| 2026-09-01 09:00:00 | 0.081 | 8.4 | 0.121 | 0.448 | 1.8 |
| 2026-09-01 10:00:00 | 0.082 | 9.03 | 0.121 | 0.45 | 1.818 |
| 2026-09-01 11:00:00 | 0.083 | 9.4 | 0.12 | 0.452 | 1.838 |
| 2026-09-01 12:00:00 | 0.083 | 9.54 | 0.12 | 0.455 | 1.865 |
| 2026-09-01 13:00:00 | 0.084 | 9.82 | 0.12 | 0.457 | 1.886 |
| 2026-09-01 14:00:00 | 0.084 | 9.77 | 0.12 | 0.458 | 1.902 |
| 2026-09-01 15:00:00 | 0.082 | 9.29 | 0.119 | 0.464 | 1.959 |
| 2026-09-01 16:00:00 | 0.082 | 9.13 | 0.12 | 0.466 | 1.981 |
| 2026-09-01 17:00:00 | 0.083 | 9.12 | 0.122 | 0.467 | 1.995 |
| 2026-09-01 18:00:00 | 0.084 | 9.02 | 0.123 | 0.468 | 1.997 |
| 2026-09-01 19:00:00 | 0.083 | 8.69 | 0.123 | 0.468 | 2.005 |
| 2026-09-01 20:00:00 | 0.082 | 8.35 | 0.122 | 0.469 | 2.015 |
| 2026-09-01 21:00:00 | 0.081 | 8.12 | 0.122 | 0.47 | 2.026 |
| 2026-09-01 22:00:00 | 0.08 | 7.965 | 0.122 | 0.471 | 2.036 |
| 2026-09-01 23:00:00 | 0.08 | 7.868 | 0.122 | 0.473 | 2.047 |
| 2026-09-02 01:00:00 | 0.08 | 8.09 | 0.122 | 0.475 | 2.069 |
| 2026-09-02 02:00:00 | 0.08 | 8.12 | 0.121 | 0.476 | 2.081 |
| 2026-09-02 03:00:00 | 0.08 | 7.984 | 0.121 | 0.477 | 2.089 |
| 2026-09-02 04:00:00 | 0.08 | 8.1 | 0.121 | 0.477 | 2.098 |
| 2026-09-02 05:00:00 | 0.08 | 8.12 | 0.121 | 0.478 | 2.106 |
| 2026-09-02 06:00:00 | 0.08 | 8.08 | 0.121 | 0.479 | 2.112 |
| 2026-09-02 07:00:00 | 0.08 | 7.99 | 0.121 | 0.479 | 2.116 |
| 2026-09-02 08:00:00 | 0.08 | 8.16 | 0.121 | 0.48 | 2.121 |
| 2026-09-02 09:00:00 | 0.081 | 8.54 | 0.121 | 0.48 | 2.126 |
| 2026-09-02 10:00:00 | 0.082 | 9.03 | 0.121 | 0.48 | 2.13 |
| 2026-09-02 11:00:00 | 0.083 | 9.28 | 0.121 | 0.481 | 2.134 |
| 2026-09-02 12:00:00 | 0.083 | 9.51 | 0.121 | 0.481 | 2.137 |
| 2026-09-02 13:00:00 | 0.084 | 9.85 | 0.121 | 0.481 | 2.141 |
| 2026-09-02 14:00:00 | 0.085 | 10.27 | 0.121 | 0.482 | 2.144 |
| 2026-09-02 15:00:00 | 0.084 | 9.84 | 0.121 | 0.482 | 2.142 |
| 2026-09-02 16:00:00 | 0.083 | 9.32 | 0.12 | 0.483 | 2.16 |
| 2026-09-02 17:00:00 | 0.082 | 9.06 | 0.121 | 0.482 | 2.143 |
| 2026-09-02 18:00:00 | 0.082 | 8.83 | 0.121 | 0.483 | 2.161 |
| 2026-09-02 19:00:00 | 0.082 | 8.62 | 0.122 | 0.482 | 2.144 |
| 2026-09-02 20:00:00 | 0.081 | 8.34 | 0.122 | 0.481 | 2.137 |
| 2026-09-02 21:00:00 | 0.081 | 8.21 | 0.122 | 0.48 | 2.129 |
| 2026-09-02 22:00:00 | 0.081 | 8.12 | 0.122 | 0.48 | 2.123 |
| 2026-09-02 23:00:00 | 0.081 | 8.11 | 0.122 | 0.479 | 2.116 |
| 2026-09-03 01:00:00 | 0.081 | 8.22 | 0.122 | 0.478 | 2.107 |
| 2026-09-03 02:00:00 | 0.081 | 8.18 | 0.122 | 0.478 | 2.102 |
| 2026-09-03 03:00:00 | 0.081 | 8.14 | 0.122 | 0.477 | 2.096 |
| 2026-09-03 04:00:00 | 0.081 | 8.14 | 0.122 | 0.477 | 2.091 |
| 2026-09-03 05:00:00 | 0.081 | 8 | 0.122 | 0.476 | 2.086 |
| 2026-09-03 06:00:00 | 0.08 | 7.871 | 0.122 | 0.476 | 2.081 |
| 2026-09-03 07:00:00 | 0.08 | 7.804 | 0.122 | 0.475 | 2.073 |
| 2026-09-03 08:00:00 | 0.081 | 8.06 | 0.122 | 0.475 | 2.07 |
| 2026-09-03 09:00:00 | 0.082 | 8.56 | 0.122 | 0.475 | 2.067 |
| 2026-09-03 10:00:00 | 0.083 | 8.98 | 0.122 | 0.474 | 2.062 |
| 2026-09-03 11:00:00 | 0.084 | 9.28 | 0.122 | 0.473 | 2.054 |
| 2026-09-03 12:00:00 | 0.085 | 9.84 | 0.122 | 0.474 | 2.063 |
| 2026-09-03 13:00:00 | 0.086 | 10.41 | 0.122 | 0.474 | 2.063 |
| 2026-09-03 14:00:00 | 0.088 | 10.96 | 0.122 | 0.473 | 2.051 |
| 2026-09-03 15:00:00 | 0.087 | 10.68 | 0.122 | 0.472 | 2.046 |